createdAt,value
2023-09-10T00:03:42.595Z,29.67
2023-09-10T00:04:42.255Z,29.67
2023-09-10T00:05:42.282Z,29.74
2023-09-10T00:06:42.353Z,29.69
2023-09-10T00:07:42.381Z,29.69
2023-09-10T00:08:42.385Z,29.69
2023-09-10T00:09:42.436Z,29.64
2023-09-10T00:10:42.979Z,29.64
2023-09-10T00:11:42.500Z,29.67
2023-09-10T00:12:42.559Z,29.62
2023-09-10T00:13:42.604Z,29.66
2023-09-10T00:14:42.606Z,29.70
2023-09-10T00:16:42.707Z,29.64
2023-09-10T00:17:43.161Z,29.69
2023-09-10T00:18:42.785Z,29.64
2023-09-10T00:19:42.823Z,29.69
2023-09-10T00:20:42.817Z,29.62
2023-09-10T00:21:42.867Z,29.58
2023-09-10T00:22:42.923Z,29.62
2023-09-10T00:24:43.268Z,29.63
2023-09-10T00:26:43.042Z,29.63
2023-09-10T00:28:43.151Z,29.64
2023-09-10T00:30:43.184Z,29.60
2023-09-10T00:31:43.571Z,29.62
2023-09-10T00:33:43.290Z,29.54
2023-09-10T00:35:43.380Z,29.57
2023-09-10T00:36:43.419Z,29.60
2023-09-10T00:39:43.767Z,29.63
2023-09-10T00:40:43.586Z,29.55
2023-09-10T00:41:43.581Z,29.62
2023-09-10T00:42:43.629Z,29.66
2023-09-10T00:43:43.677Z,29.55
2023-09-10T00:44:43.716Z,29.62
2023-09-10T00:45:43.789Z,29.52
2023-09-10T00:47:44.091Z,29.55
2023-09-10T00:48:43.833Z,29.60
2023-09-10T00:49:43.894Z,29.62
2023-09-10T00:51:43.936Z,29.51
2023-09-10T00:52:44.296Z,29.60
2023-09-10T00:53:44.714Z,29.47
2023-09-10T00:54:44.353Z,29.57
2023-09-10T00:56:44.135Z,29.55
2023-09-10T00:59:45.018Z,29.55
2023-09-10T01:00:45.128Z,29.63
2023-09-10T01:02:45.121Z,29.48
2023-09-10T01:03:44.390Z,29.48
2023-09-10T01:09:44.883Z,29.51
2023-09-10T01:10:44.640Z,29.58
2023-09-10T01:11:45.224Z,29.51
2023-09-10T01:14:44.762Z,29.49
2023-09-10T01:15:44.802Z,29.47
2023-09-10T01:16:45.680Z,29.60
2023-09-10T01:17:44.924Z,29.48
2023-09-10T01:20:45.028Z,29.54
2023-09-10T01:21:45.016Z,29.52
2023-09-10T01:22:45.096Z,29.52
2023-09-10T01:23:45.390Z,29.54
2023-09-10T01:24:45.136Z,29.48
2023-09-10T01:25:45.227Z,29.54
2023-09-10T01:29:45.642Z,29.45
2023-09-10T01:30:45.371Z,29.45
2023-09-10T01:32:45.492Z,29.47
2023-09-10T01:33:45.457Z,29.47
2023-09-10T01:34:45.520Z,29.48
2023-09-10T01:36:45.567Z,29.49
2023-09-10T01:37:45.943Z,29.49
2023-09-10T01:38:45.622Z,29.45
2023-09-10T01:39:45.662Z,29.44
2023-09-10T01:40:45.749Z,29.44
2023-09-10T01:41:45.742Z,29.47
2023-09-10T01:42:45.780Z,29.49
2023-09-10T01:44:45.871Z,29.48
2023-09-10T01:45:46.187Z,29.48
2023-09-10T01:46:46.593Z,29.44
2023-09-10T01:47:46.361Z,29.42
2023-09-10T01:48:52.277Z,29.42
2023-09-10T01:51:46.092Z,29.45
2023-09-10T01:55:46.560Z,29.45
2023-09-10T01:57:46.341Z,29.47
2023-09-10T01:59:46.372Z,29.48
2023-09-10T02:00:46.411Z,29.49
2023-09-10T02:01:46.516Z,29.48
2023-09-10T02:04:46.588Z,29.45
2023-09-10T02:07:46.679Z,29.51
2023-09-10T02:08:47.207Z,29.48
2023-09-10T02:09:47.357Z,29.41
2023-09-10T02:12:46.841Z,29.49
2023-09-10T02:15:47.049Z,29.41
2023-09-10T02:17:47.834Z,29.41
2023-09-10T02:19:47.119Z,29.42
2023-09-10T02:20:47.158Z,29.41
2023-09-10T02:21:47.165Z,29.41
2023-09-10T02:28:47.706Z,29.44
2023-09-10T02:29:47.453Z,29.42
2023-09-10T02:31:47.575Z,29.39
2023-09-10T02:33:47.587Z,29.35
2023-09-10T02:34:47.967Z,29.33
2023-09-10T02:35:47.913Z,29.35
2023-09-10T02:37:47.778Z,29.41
2023-09-10T02:38:47.775Z,29.35
2023-09-10T02:39:47.806Z,29.32
2023-09-10T02:40:47.904Z,29.39
2023-09-10T02:41:47.873Z,29.39
2023-09-10T02:42:48.540Z,29.29
2023-09-10T02:45:48.046Z,29.41
2023-09-10T02:46:48.086Z,29.32
2023-09-10T02:47:48.118Z,29.41
2023-09-10T02:48:48.124Z,29.25
2023-09-10T02:49:48.486Z,29.33
2023-09-10T02:51:48.237Z,29.29
2023-09-10T02:52:48.320Z,29.25
2023-09-10T02:54:48.359Z,29.37
2023-09-10T02:55:48.396Z,29.30
2023-09-10T02:56:48.708Z,29.25
2023-09-10T02:57:48.442Z,29.35
2023-09-10T02:58:48.717Z,29.29
2023-09-10T03:00:48.554Z,29.29
2023-09-10T03:02:48.824Z,29.32
2023-09-10T03:03:49.013Z,29.33
2023-09-10T03:05:48.733Z,29.35
2023-09-10T03:08:48.838Z,29.35
2023-09-10T03:09:49.184Z,29.32
2023-09-10T03:10:49.134Z,29.36
2023-09-10T03:11:49.048Z,29.30
2023-09-10T03:12:48.991Z,29.32
2023-09-10T03:13:49.072Z,29.33
2023-09-10T03:15:49.141Z,29.30
2023-09-10T03:18:49.490Z,29.26
2023-09-10T03:19:49.285Z,29.26
2023-09-10T03:20:49.266Z,29.29
2023-09-10T03:22:49.379Z,29.26
2023-09-10T03:23:49.376Z,29.30
2023-09-10T03:32:49.917Z,29.26
2023-09-10T03:33:50.230Z,29.30
2023-09-10T03:34:49.813Z,29.25
2023-09-10T03:35:49.857Z,29.18
2023-09-10T03:36:49.845Z,29.21
2023-09-10T03:37:49.919Z,29.23
2023-09-10T03:38:49.952Z,29.26
2023-09-10T03:39:49.940Z,29.26
2023-09-10T03:40:50.310Z,29.18
2023-09-10T03:42:50.064Z,29.23
2023-09-10T03:43:50.119Z,29.18
2023-09-10T03:44:50.146Z,29.15
2023-09-10T03:45:50.213Z,29.12
2023-09-10T03:46:50.316Z,29.15
2023-09-10T03:47:50.642Z,29.12
2023-09-10T03:55:50.800Z,29.17
2023-09-10T03:57:50.584Z,29.15
2023-09-10T03:58:50.637Z,29.15
2023-09-10T04:00:50.718Z,29.15
2023-09-10T04:02:50.904Z,29.17
2023-09-10T04:03:51.120Z,29.17
2023-09-10T04:04:50.861Z,29.14
2023-09-10T04:06:51.112Z,29.21
2023-09-10T04:08:50.984Z,29.17
2023-09-10T04:09:52.430Z,29.21
2023-09-10T04:11:51.415Z,29.25
2023-09-10T04:12:51.122Z,29.11
2023-09-10T04:13:51.206Z,29.17
2023-09-10T04:14:51.190Z,29.17
2023-09-10T04:16:51.366Z,29.14
2023-09-10T04:17:51.976Z,29.15
2023-09-10T04:24:51.851Z,29.10
2023-09-10T04:25:51.629Z,29.10
2023-09-10T04:26:51.617Z,29.15
2023-09-10T04:28:51.738Z,29.10
2023-09-10T04:29:51.721Z,29.11
2023-09-10T04:30:51.787Z,29.11
2023-09-10T04:31:52.309Z,29.07
2023-09-10T04:33:51.858Z,29.12
2023-09-10T04:34:51.920Z,29.10
2023-09-10T04:35:51.928Z,29.20
2023-09-10T04:38:52.049Z,29.11
2023-09-10T04:40:52.477Z,29.21
2023-09-10T04:42:52.182Z,29.08
2023-09-10T04:43:52.240Z,29.18
2023-09-10T04:45:52.314Z,29.21
2023-09-10T04:48:52.395Z,29.20
2023-09-10T04:49:53.362Z,29.14
2023-09-10T04:50:52.457Z,29.18
2023-09-10T04:51:52.488Z,29.15
2023-09-10T04:52:52.555Z,29.20
2023-09-10T04:53:52.563Z,29.11
2023-09-10T04:55:52.649Z,29.17
2023-09-10T04:56:53.169Z,29.17
2023-09-10T04:57:52.700Z,29.17
2023-09-10T04:58:52.793Z,29.17
2023-09-10T04:59:52.780Z,29.18
2023-09-10T05:00:52.817Z,29.05
2023-09-10T05:01:52.975Z,29.08
2023-09-10T05:02:53.006Z,29.05
2023-09-10T05:04:53.276Z,29.20
2023-09-10T05:07:53.094Z,29.18
2023-09-10T05:08:53.105Z,29.21
2023-09-10T05:09:53.330Z,29.14
2023-09-10T05:14:53.319Z,29.21
2023-09-10T05:15:53.350Z,29.21
2023-09-10T05:18:53.780Z,29.11
2023-09-10T05:19:53.543Z,29.12
2023-09-10T05:20:57.269Z,29.14
2023-09-10T05:21:54.992Z,29.05
2023-09-10T05:22:53.607Z,29.10
2023-09-10T05:23:53.830Z,29.15
2023-09-10T05:24:53.669Z,29.12
2023-09-10T05:26:54.038Z,29.17
2023-09-10T05:27:53.767Z,29.07
2023-09-10T05:31:53.994Z,29.12
2023-09-10T05:33:54.298Z,29.17
2023-09-10T05:36:54.846Z,29.15
2023-09-10T05:37:54.177Z,29.10
2023-09-10T05:39:54.200Z,29.20
2023-09-10T05:40:54.526Z,29.15
2023-09-10T05:41:54.261Z,29.20
2023-09-10T05:42:54.305Z,29.10
2023-09-10T05:44:54.379Z,29.08
2023-09-10T05:46:54.491Z,29.17
2023-09-10T05:47:54.854Z,29.15
2023-09-10T05:48:54.527Z,29.10
2023-09-10T05:49:54.570Z,29.12
2023-09-10T05:50:54.582Z,29.23
2023-09-10T05:51:54.623Z,29.20
2023-09-10T05:52:54.689Z,29.15
2023-09-10T05:53:54.790Z,29.20
2023-09-10T05:54:55.025Z,29.23
2023-09-10T05:55:54.783Z,29.20
2023-09-10T05:57:54.846Z,29.21
2023-09-10T05:58:54.958Z,29.15
2023-09-10T05:59:54.910Z,29.18
2023-09-10T06:00:54.945Z,29.18
2023-09-10T06:01:55.469Z,29.12
2023-09-10T06:03:55.100Z,29.20
2023-09-10T06:11:55.352Z,29.15
2023-09-10T06:15:55.768Z,29.20
2023-09-10T06:17:55.744Z,29.21
2023-09-10T06:20:55.642Z,29.20
2023-09-10T06:24:55.813Z,29.15
2023-09-10T06:25:56.102Z,29.23
2023-09-10T06:27:55.924Z,29.17
2023-09-10T06:28:55.954Z,29.14
2023-09-10T06:30:56.001Z,29.25
2023-09-10T06:31:56.381Z,29.23
2023-09-10T06:32:56.184Z,29.21
2023-09-10T06:33:56.115Z,29.21
2023-09-10T06:35:56.179Z,29.26
2023-09-10T06:37:56.318Z,29.26
2023-09-10T06:38:56.688Z,29.25
2023-09-10T06:39:56.329Z,29.30
2023-09-10T06:40:56.432Z,29.27
2023-09-10T06:41:56.477Z,29.25
2023-09-10T06:42:57.138Z,29.26
2023-09-10T06:47:56.862Z,29.35
2023-09-10T06:50:58.943Z,29.29
2023-09-10T06:51:56.747Z,29.30
2023-09-10T06:52:56.857Z,29.30
2023-09-10T06:53:56.828Z,29.29
2023-09-10T06:54:58.107Z,29.30
2023-09-10T07:10:26.945Z,29.26
2023-09-10T07:11:26.992Z,29.32
2023-09-10T07:12:26.990Z,29.29
2023-09-10T07:13:27.027Z,29.30
2023-09-10T07:30:45.949Z,29.39
2023-09-10T07:31:44.499Z,29.33
2023-09-10T07:32:44.545Z,29.30
2023-09-10T07:33:44.525Z,29.42
2023-09-10T07:34:44.562Z,29.36
2023-09-10T07:35:44.584Z,29.36
2023-09-10T15:48:16.938Z,32.39
2023-09-10T15:49:16.570Z,32.29
2023-09-10T15:50:16.637Z,32.34
2023-09-10T15:51:16.645Z,32.28
2023-09-10T15:52:16.703Z,32.39
2023-09-10T15:53:16.815Z,32.36
2023-09-10T15:54:17.050Z,32.43
2023-09-10T15:55:16.784Z,32.35
2023-09-10T15:56:16.874Z,32.34
2023-09-10T15:57:16.897Z,32.40
2023-09-10T15:58:16.912Z,32.41
2023-09-10T15:59:16.946Z,32.34
2023-09-10T16:00:17.313Z,32.35
2023-09-10T16:01:17.083Z,32.32
2023-09-10T16:02:17.135Z,32.39
2023-09-10T16:03:17.239Z,32.46
2023-09-10T16:04:17.160Z,32.44
2023-09-10T16:05:17.193Z,32.49
2023-09-10T16:06:17.442Z,32.46
2023-09-10T16:07:17.233Z,32.50
2023-09-10T16:08:17.317Z,32.49
2023-09-10T16:09:17.360Z,32.49
2023-09-10T16:10:17.343Z,32.54
2023-09-10T16:11:17.388Z,32.43
2023-09-10T16:12:17.407Z,32.50
2023-09-10T16:13:17.747Z,32.56
2023-09-10T16:14:17.549Z,32.53
2023-09-10T16:15:17.565Z,32.53
2023-09-10T16:16:17.667Z,32.53
2023-09-10T16:17:17.704Z,32.58
2023-09-10T16:18:17.698Z,32.58
2023-09-10T16:19:17.696Z,32.59
2023-09-10T16:20:18.105Z,32.61
2023-09-10T16:21:17.757Z,32.61
2023-09-10T16:22:17.797Z,32.62
2023-09-10T16:23:17.831Z,32.62
2023-09-10T16:24:17.868Z,32.71
2023-09-10T16:25:17.915Z,32.65
2023-09-10T16:26:18.150Z,32.66
2023-09-10T16:27:18.245Z,32.71
2023-09-10T16:28:18.028Z,32.68
2023-09-10T16:29:18.087Z,32.66
2023-09-10T16:30:18.096Z,32.72
2023-09-10T16:31:18.210Z,32.66
2023-09-10T16:32:18.198Z,32.65
2023-09-10T16:33:18.248Z,32.71
2023-09-10T16:34:18.493Z,32.77
2023-09-10T16:35:18.338Z,32.80
2023-09-10T16:36:18.346Z,32.69
2023-09-10T16:37:18.349Z,32.77
2023-09-10T16:38:18.427Z,32.80
2023-09-10T16:39:18.440Z,32.80
2023-09-10T16:40:18.456Z,32.73
2023-09-10T16:41:18.812Z,32.77
2023-09-10T16:42:18.534Z,32.81
2023-09-10T16:43:18.566Z,32.77
2023-09-10T16:44:18.668Z,32.81
2023-09-10T16:45:18.638Z,32.80
2023-09-10T16:46:18.759Z,32.77
2023-09-10T16:47:18.751Z,32.77
2023-09-10T16:48:19.037Z,32.73
2023-09-10T16:49:18.813Z,32.76
2023-09-10T16:50:18.841Z,32.76
2023-09-10T16:51:18.872Z,32.69
2023-09-10T16:52:18.932Z,32.63
2023-09-10T16:53:18.967Z,32.69
2023-09-10T16:54:18.970Z,32.72
2023-09-10T16:55:19.257Z,32.66
2023-09-10T16:56:19.084Z,32.72
2023-09-10T16:57:19.079Z,32.63
2023-09-10T16:58:19.115Z,32.68
2023-09-10T16:59:19.214Z,32.63
2023-09-10T17:00:19.440Z,32.72
2023-09-10T17:01:19.295Z,32.66
2023-09-10T17:02:19.585Z,32.68
2023-09-10T17:03:19.497Z,32.68
2023-09-10T17:04:19.328Z,32.68
2023-09-10T17:05:19.394Z,32.71
2023-09-10T17:06:19.399Z,32.69
2023-09-10T17:07:19.440Z,32.71
2023-09-10T17:08:19.531Z,32.68
2023-09-10T17:09:19.821Z,32.63
2023-09-10T17:10:19.610Z,32.66
2023-09-10T17:11:19.605Z,32.66
2023-09-10T17:12:19.614Z,32.61
2023-09-10T17:13:19.671Z,32.59
2023-09-10T17:14:19.810Z,32.58
2023-09-10T17:15:19.732Z,32.54
2023-09-10T17:16:20.157Z,32.51
2023-09-10T17:17:19.842Z,32.54
2023-09-10T17:18:19.846Z,32.54
2023-09-10T17:19:19.885Z,32.53
2023-09-10T17:20:19.957Z,32.58
2023-09-10T17:21:19.966Z,32.54
2023-09-10T17:22:20.280Z,32.54
2023-09-10T17:23:20.096Z,32.49
2023-09-10T17:24:20.075Z,32.50
2023-09-10T17:25:20.138Z,32.53
2023-09-10T17:26:20.176Z,32.47
2023-09-10T17:27:20.158Z,32.51
2023-09-10T17:28:20.448Z,32.46
2023-09-10T17:29:20.257Z,32.43
2023-09-10T17:30:20.270Z,32.47
2023-09-10T17:31:20.340Z,32.43
2023-09-10T17:32:20.402Z,32.50
2023-09-10T17:33:20.453Z,32.47
2023-09-10T17:34:20.707Z,32.46
2023-09-10T17:35:20.463Z,32.43
2023-09-10T17:36:20.489Z,32.39
2023-09-10T17:37:20.521Z,32.40
2023-09-10T17:38:20.595Z,32.36
2023-09-10T17:39:20.590Z,32.34
2023-09-10T17:40:20.652Z,32.36
2023-09-10T17:41:21.037Z,32.32
2023-09-10T17:42:20.694Z,32.39
2023-09-10T17:43:20.729Z,32.31
2023-09-10T17:44:20.832Z,32.31
2023-09-10T17:45:20.810Z,32.39
2023-09-10T17:46:20.916Z,32.25
2023-09-10T17:47:20.928Z,32.31
2023-09-10T17:48:21.237Z,32.31
2023-09-10T17:49:20.955Z,32.32
2023-09-10T17:50:20.997Z,32.29
2023-09-10T17:51:21.154Z,32.29
2023-09-10T17:52:21.057Z,32.31
2023-09-10T17:53:21.154Z,32.27
2023-09-10T17:54:21.134Z,32.25
2023-09-10T17:55:21.466Z,32.29
2023-09-10T17:56:21.306Z,32.22
2023-09-10T17:57:21.245Z,32.28
2023-09-10T17:58:21.263Z,32.19
2023-09-10T17:59:21.355Z,32.22
2023-09-10T18:00:21.335Z,32.17
2023-09-10T18:01:21.423Z,32.17
2023-09-10T18:02:21.668Z,32.12
2023-09-10T18:03:21.557Z,32.14
2023-09-10T18:04:21.648Z,32.12
2023-09-10T18:05:21.597Z,32.19
2023-09-10T18:06:21.551Z,32.17
2023-09-10T18:07:21.659Z,32.12
2023-09-10T18:08:21.635Z,32.14
2023-09-10T18:09:22.091Z,32.12
2023-09-10T18:10:21.690Z,32.10
2023-09-10T18:11:21.747Z,32.03
2023-09-10T18:12:21.805Z,31.97
2023-09-10T18:13:21.799Z,31.99
2023-09-10T18:14:21.891Z,32.02
2023-09-10T18:15:21.898Z,31.97
2023-09-10T18:16:22.269Z,31.94
2023-09-10T18:17:22.091Z,31.91
2023-09-10T18:18:22.032Z,31.90
2023-09-10T18:19:22.113Z,31.92
2023-09-10T18:20:22.100Z,31.88
2023-09-10T18:21:22.145Z,31.85
2023-09-10T18:22:22.111Z,31.87
2023-09-10T18:23:24.447Z,31.85
2023-09-10T18:24:22.189Z,31.85
2023-09-10T18:25:22.227Z,31.85
2023-09-10T18:26:22.290Z,31.79
2023-09-10T18:27:22.297Z,31.78
2023-09-10T18:28:22.347Z,31.85
2023-09-10T18:29:22.384Z,31.72
2023-09-10T18:30:22.663Z,31.71
2023-09-10T18:31:22.457Z,31.67
2023-09-10T18:32:22.509Z,31.69
2023-09-10T18:33:22.608Z,31.75
2023-09-10T18:34:22.550Z,31.75
2023-09-10T18:35:22.604Z,31.75
2023-09-10T18:36:22.618Z,31.75
2023-09-10T18:37:22.959Z,31.69
2023-09-10T18:38:22.732Z,31.72
2023-09-10T18:39:22.730Z,31.68
2023-09-10T18:40:22.785Z,31.65
2023-09-10T18:41:22.832Z,31.69
2023-09-10T18:42:22.842Z,31.62
2023-09-10T18:43:22.860Z,31.60
2023-09-10T18:44:23.233Z,31.56
2023-09-10T18:45:22.958Z,31.67
2023-09-10T18:46:23.030Z,31.57
2023-09-10T18:47:23.350Z,31.62
2023-09-10T18:48:23.113Z,31.54
2023-09-10T18:49:23.080Z,31.59
2023-09-10T18:50:23.164Z,31.54
2023-09-10T18:51:25.790Z,31.46
2023-09-10T18:52:23.187Z,31.42
2023-09-10T18:53:23.238Z,31.45
2023-09-10T18:54:23.291Z,31.49
2023-09-10T18:55:23.291Z,31.47
2023-09-10T18:56:23.376Z,31.49
2023-09-10T18:57:23.351Z,31.42
2023-09-10T18:58:23.647Z,31.52
2023-09-10T18:59:23.492Z,31.49
2023-09-10T19:00:23.520Z,31.46
2023-09-10T19:01:23.566Z,31.40
2023-09-10T19:02:23.608Z,31.40
2023-09-10T19:03:23.681Z,31.38
2023-09-10T19:04:23.992Z,31.40
2023-09-10T19:05:23.690Z,31.40
2023-09-10T19:06:23.675Z,31.38
2023-09-10T19:07:23.714Z,31.41
2023-09-10T19:08:23.745Z,31.32
2023-09-10T19:09:23.773Z,31.32
2023-09-10T19:10:24.093Z,31.32
2023-09-10T19:11:23.910Z,31.31
2023-09-10T19:12:23.885Z,31.35
2023-09-10T19:13:23.922Z,31.30
2023-09-10T19:14:23.969Z,31.32
2023-09-10T19:15:23.979Z,31.27
2023-09-10T19:16:24.386Z,31.34
2023-09-10T19:17:24.227Z,31.28
2023-09-10T19:18:24.142Z,31.31
2023-09-10T19:19:24.130Z,31.28
2023-09-10T19:20:24.201Z,31.32
2023-09-10T19:21:24.196Z,31.31
2023-09-10T19:22:24.284Z,31.22
2023-09-10T19:23:24.588Z,31.25
2023-09-10T19:24:24.306Z,31.30
2023-09-10T19:25:24.362Z,31.27
2023-09-10T19:26:24.416Z,31.20
2023-09-10T19:27:24.400Z,31.22
2023-09-10T19:28:24.445Z,31.16
2023-09-10T19:29:24.652Z,31.22
2023-09-10T19:30:24.776Z,31.20
2023-09-10T19:31:24.649Z,31.18
2023-09-10T19:32:24.652Z,31.13
2023-09-10T19:33:24.658Z,31.12
2023-09-10T19:34:24.650Z,31.12
2023-09-10T19:35:24.725Z,31.16
2023-09-10T19:36:24.718Z,31.18
2023-09-10T19:37:26.588Z,31.19
2023-09-10T19:38:24.819Z,31.16
2023-09-10T19:40:24.866Z,31.19
2023-09-10T19:41:24.934Z,31.10
2023-09-10T19:42:24.930Z,31.18
2023-09-10T19:43:24.960Z,31.18
2023-09-10T19:44:25.359Z,31.09
2023-09-10T19:45:25.063Z,31.13
2023-09-10T19:46:25.125Z,31.15
2023-09-10T19:47:25.155Z,31.09
2023-09-10T19:48:25.191Z,31.05
2023-09-10T19:49:25.181Z,31.10
2023-09-10T19:50:25.277Z,31.15
2023-09-10T19:51:25.489Z,31.07
2023-09-10T19:52:25.281Z,31.04
2023-09-10T19:53:25.320Z,31.04
2023-09-10T19:54:25.346Z,31.04
2023-09-10T19:55:25.387Z,31.01
2023-09-10T19:56:28.080Z,31.05
2023-09-10T19:57:25.458Z,31.03
2023-09-10T19:58:25.792Z,31.04
2023-09-10T19:59:25.584Z,31.03
2023-09-10T20:00:25.570Z,31.03
2023-09-10T20:01:25.600Z,30.98
2023-09-10T20:02:25.696Z,31.04
2023-09-10T20:03:26.521Z,30.93
2023-09-10T20:04:25.721Z,30.96
2023-09-10T20:05:26.079Z,30.98
2023-09-10T20:06:25.835Z,30.96
2023-09-10T20:07:25.819Z,30.85
2023-09-10T20:08:25.866Z,31.01
2023-09-10T20:09:25.870Z,30.93
2023-09-10T20:10:25.942Z,30.91
2023-09-10T20:11:25.957Z,30.97
2023-09-10T20:12:26.281Z,30.91
2023-09-10T20:13:26.010Z,30.90
2023-09-10T20:14:26.169Z,30.82
2023-09-10T20:15:26.077Z,30.90
2023-09-10T20:16:26.212Z,30.96
2023-09-10T20:17:26.176Z,30.94
2023-09-10T20:18:26.218Z,30.91
2023-09-10T20:19:26.522Z,30.90
2023-09-10T20:20:26.325Z,30.85
2023-09-10T20:21:26.280Z,30.79
2023-09-10T20:22:26.340Z,30.90
2023-09-10T20:23:26.384Z,30.78
2023-09-10T20:24:26.385Z,30.85
2023-09-10T20:25:26.413Z,30.85
2023-09-10T20:26:27.726Z,30.83
2023-09-10T20:27:26.487Z,30.85
2023-09-10T20:28:26.529Z,30.83
2023-09-10T20:29:26.634Z,30.86
2023-09-10T20:30:26.677Z,30.82
2023-09-10T20:31:26.702Z,30.79
2023-09-10T20:32:26.754Z,30.81
2023-09-10T20:33:27.230Z,30.73
2023-09-10T20:34:26.725Z,30.88
2023-09-10T20:35:26.892Z,30.70
2023-09-10T20:36:26.845Z,30.76
2023-09-10T20:37:26.838Z,30.75
2023-09-10T20:38:26.929Z,30.75
2023-09-10T20:39:26.906Z,30.72
2023-09-10T20:40:27.183Z,30.73
2023-09-10T20:41:26.991Z,30.76
2023-09-10T20:42:27.009Z,30.72
2023-09-10T20:43:27.049Z,30.76
2023-09-10T20:44:27.113Z,30.75
2023-09-10T20:45:27.106Z,30.81
2023-09-10T20:46:27.511Z,30.81
2023-09-10T20:47:27.233Z,30.73
2023-09-10T20:48:27.229Z,30.64
2023-09-10T20:50:27.327Z,30.63
2023-09-10T20:51:27.321Z,30.67
2023-09-10T20:52:29.310Z,30.70
2023-09-10T20:53:27.424Z,30.66
2023-09-10T20:54:27.416Z,30.63
2023-09-10T20:55:27.455Z,30.59
2023-09-10T20:56:27.525Z,30.61
2023-09-10T20:57:27.516Z,30.57
2023-09-10T20:58:27.803Z,30.59
2023-09-10T20:59:27.603Z,30.54
2023-09-10T21:00:27.856Z,30.67
2023-09-10T21:01:27.733Z,30.59
2023-09-10T21:02:27.799Z,30.60
2023-09-10T21:03:29.755Z,30.59
2023-09-10T21:04:27.930Z,30.57
2023-09-10T21:05:28.258Z,30.60
2023-09-10T21:06:27.970Z,30.59
2023-09-10T21:07:28.324Z,30.59
2023-09-10T21:08:28.149Z,30.51
2023-09-10T21:09:27.936Z,30.48
2023-09-10T21:10:27.966Z,30.56
2023-09-10T21:11:28.013Z,30.46
2023-09-10T21:12:28.336Z,30.51
2023-09-10T21:13:28.073Z,30.53
2023-09-10T21:14:28.153Z,30.53
2023-09-10T21:15:28.186Z,30.48
2023-09-10T21:16:28.181Z,30.48
2023-09-10T21:17:28.293Z,30.53
2023-09-10T21:18:28.302Z,30.48
2023-09-10T21:19:28.577Z,30.46
2023-09-10T21:20:28.351Z,30.45
2023-09-10T21:21:28.356Z,30.42
2023-09-10T21:22:28.400Z,30.42
2023-09-10T21:23:28.421Z,30.42
2023-09-10T21:24:28.495Z,30.45
2023-09-10T21:25:28.474Z,30.44
2023-09-10T21:26:28.852Z,30.42
2023-09-10T21:27:28.559Z,30.38
2023-09-10T21:28:28.587Z,30.46
2023-09-10T21:29:28.647Z,30.37
2023-09-10T21:30:28.682Z,30.44
2023-09-10T21:31:28.891Z,30.36
2023-09-10T21:32:28.847Z,30.37
2023-09-10T21:33:29.099Z,30.28
2023-09-10T21:35:28.883Z,30.34
2023-09-10T21:36:28.861Z,30.25
2023-09-10T21:37:28.896Z,30.32
2023-09-10T21:38:28.989Z,30.23
2023-09-10T21:39:28.963Z,30.38
2023-09-10T21:40:29.271Z,30.26
2023-09-10T21:41:29.055Z,30.38
2023-09-10T21:42:29.056Z,30.28
2023-09-10T21:43:29.100Z,30.28
2023-09-10T21:44:29.148Z,30.25
2023-09-10T21:45:29.163Z,30.19
2023-09-10T21:46:29.192Z,30.21
2023-09-10T21:47:29.598Z,30.28
2023-09-10T21:48:29.306Z,30.23
2023-09-10T21:49:29.296Z,30.21
2023-09-10T21:50:29.329Z,30.22
2023-09-10T21:51:29.373Z,30.26
2023-09-10T21:52:29.399Z,30.28
2023-09-10T21:53:29.477Z,30.28
2023-09-10T21:54:29.766Z,30.18
2023-09-10T21:55:29.503Z,30.19
2023-09-10T21:56:29.644Z,30.25
2023-09-10T21:57:29.581Z,30.16
2023-09-10T21:58:29.634Z,30.23
2023-09-10T21:59:29.673Z,30.18
2023-09-10T22:00:29.674Z,30.15
2023-09-10T22:01:30.086Z,30.13
2023-09-10T22:02:29.983Z,30.22
2023-09-10T22:03:29.962Z,30.18
2023-09-10T22:04:31.043Z,30.19
2023-09-10T22:05:30.163Z,30.18
2023-09-10T22:06:29.878Z,30.07
2023-09-10T22:07:29.935Z,30.22
2023-09-10T22:08:30.255Z,30.07
2023-09-10T22:09:29.979Z,30.16
2023-09-10T22:10:30.065Z,30.13
2023-09-10T22:11:30.105Z,30.08
2023-09-10T22:12:30.106Z,30.11
2023-09-10T22:13:30.122Z,30.18
2023-09-10T22:14:30.188Z,30.08
2023-09-10T22:15:30.502Z,30.22
2023-09-10T22:16:30.232Z,30.15
2023-09-10T22:17:30.405Z,30.13
2023-09-10T22:18:30.324Z,30.16
2023-09-10T22:19:30.329Z,30.21
2023-09-10T22:20:30.393Z,30.16
2023-09-10T22:21:30.393Z,30.15
2023-09-10T22:22:30.677Z,30.19
2023-09-10T22:23:30.476Z,30.11
2023-09-10T22:24:30.493Z,30.16
2023-09-10T22:25:30.547Z,30.21
2023-09-10T22:26:30.597Z,30.16
2023-09-10T22:27:30.611Z,30.08
2023-09-10T22:28:30.972Z,30.19
2023-09-10T22:29:30.743Z,30.13
2023-09-10T22:30:30.709Z,30.13
2023-09-10T22:31:30.737Z,30.13
2023-09-10T22:32:30.829Z,30.19
2023-09-10T22:33:30.806Z,30.13
2023-09-10T22:34:31.089Z,30.16
2023-09-10T22:35:30.923Z,30.23
2023-09-10T22:36:38.238Z,30.16
2023-09-10T22:37:30.935Z,30.15
2023-09-10T22:38:31.026Z,30.13
2023-09-10T22:39:31.000Z,30.19
2023-09-10T22:40:31.328Z,30.16
2023-09-10T22:41:31.092Z,30.13
2023-09-10T22:42:31.102Z,30.16
2023-09-10T22:43:31.136Z,30.19
2023-09-10T22:44:31.211Z,30.23
2023-09-10T22:45:31.230Z,30.23
2023-09-10T22:46:31.238Z,30.16
2023-09-10T22:47:31.608Z,30.26
2023-09-10T22:48:31.361Z,30.28
2023-09-10T22:49:31.596Z,30.28
2023-09-10T22:50:31.384Z,30.30
2023-09-10T22:51:31.404Z,30.23
2023-09-10T22:52:31.441Z,30.26
2023-09-10T22:53:31.519Z,30.23
2023-09-10T22:54:31.819Z,30.19
2023-09-10T22:55:31.546Z,30.25
2023-09-10T22:56:31.623Z,30.21
2023-09-10T22:57:31.606Z,30.19
2023-09-10T22:58:31.636Z,30.25
2023-09-10T22:59:31.724Z,30.22
2023-09-10T23:00:31.726Z,30.29
2023-09-10T23:01:32.030Z,30.25
2023-09-10T23:02:31.840Z,30.23
2023-09-10T23:03:32.014Z,30.25
2023-09-10T23:04:31.885Z,30.28
2023-09-10T23:05:31.917Z,30.28
2023-09-10T23:06:31.902Z,30.28
2023-09-10T23:07:31.948Z,30.26
2023-09-10T23:08:32.319Z,30.34
2023-09-10T23:09:32.012Z,30.29
2023-09-10T23:10:32.044Z,30.26
2023-09-10T23:11:32.114Z,30.30
2023-09-10T23:12:32.108Z,30.30
2023-09-10T23:13:32.147Z,30.26
2023-09-10T23:14:32.224Z,30.30
2023-09-10T23:15:32.918Z,30.38
2023-09-10T23:16:32.274Z,30.34
2023-09-10T23:17:32.356Z,30.26
2023-09-10T23:18:32.385Z,30.34
2023-09-10T23:19:32.350Z,30.23
2023-09-10T23:20:32.471Z,30.23
2023-09-10T23:21:32.430Z,30.25
2023-09-10T23:22:32.718Z,30.22
2023-09-10T23:23:32.537Z,30.34
2023-09-10T23:24:32.533Z,30.25
2023-09-10T23:25:32.596Z,30.29
2023-09-10T23:26:32.664Z,30.34
2023-09-10T23:27:32.629Z,30.26
2023-09-10T23:28:32.646Z,30.25
2023-09-10T23:29:33.023Z,30.36
2023-09-10T23:30:32.733Z,30.36
2023-09-10T23:31:32.793Z,30.38
2023-09-10T23:32:32.933Z,30.22
2023-09-10T23:33:32.946Z,30.25
2023-09-10T23:34:32.853Z,30.44
2023-09-10T23:35:32.910Z,30.25
2023-09-10T23:36:33.224Z,30.25
2023-09-10T23:37:32.972Z,30.42
2023-09-10T23:38:32.995Z,30.26
2023-09-10T23:39:33.034Z,30.42
2023-09-10T23:40:33.054Z,30.26
2023-09-10T23:41:33.155Z,30.29
2023-09-10T23:42:33.122Z,30.37
2023-09-10T23:43:33.466Z,30.32
2023-09-10T23:44:33.261Z,30.37
2023-09-10T23:45:33.239Z,30.32
2023-09-10T23:46:33.296Z,30.32
2023-09-10T23:47:33.395Z,30.23
2023-09-10T23:48:33.387Z,30.34
2023-09-10T23:49:33.375Z,30.30
2023-09-10T23:50:33.794Z,30.26
2023-09-10T23:51:33.428Z,30.22
2023-09-10T23:52:33.463Z,30.40
2023-09-10T23:53:33.542Z,30.38
2023-09-10T23:54:33.538Z,30.32
2023-09-10T23:55:33.556Z,30.32
2023-09-10T23:56:33.629Z,30.38
2023-09-10T23:57:33.979Z,30.25
2023-09-10T23:58:33.660Z,30.34
2023-09-10T23:59:33.699Z,30.34
